Time;durP1;ratioP1;P1;durP2;ratioP2;P2;SDS_P1;SDS_P2;PMS_P1;PMS_P2;Temp;Humidity;BMP_temperature;BMP_pressure;BME280_temperature;BME280_humidity;BME280_pressure;Samples;Min_cycle;Max_cycle;Signal;HPM_P1;HPM_P2
2024/01/27 00:00:24;;;;;;;31.15;6.05;;;3.50;99.90;;;;;;5013421;28;20030;-73
2024/01/27 00:02:51;;;;;;;31.98;6.38;;;3.40;99.90;;;;;;5013645;28;20064;-74
2024/01/27 00:05:17;;;;;;;24.75;5.82;;;3.40;99.90;;;;;;5013126;28;20029;-73
2024/01/27 00:07:42;;;;;;;33.15;6.70;;;3.40;99.90;;;;;;5013526;28;20038;-72
2024/01/27 00:10:08;;;;;;;23.85;5.80;;;3.40;99.90;;;;;;5013317;28;20030;-73
2024/01/27 00:12:33;;;;;;;30.20;6.05;;;3.40;99.90;;;;;;5013617;28;20026;-73
2024/01/27 00:14:59;;;;;;;32.03;6.68;;;3.40;99.90;;;;;;5013564;28;20030;-72
2024/01/27 00:17:26;;;;;;;31.88;6.95;;;3.40;99.90;;;;;;5013481;28;20052;-72
2024/01/27 00:19:51;;;;;;;30.23;7.30;;;3.40;99.90;;;;;;5013204;28;20503;-72
2024/01/27 00:22:17;;;;;;;30.60;6.97;;;3.30;99.90;;;;;;5013616;28;20030;-73
2024/01/27 00:24:43;;;;;;;36.97;7.43;;;3.30;99.90;;;;;;5013341;28;20032;-73
2024/01/27 00:27:09;;;;;;;33.72;7.47;;;3.40;99.90;;;;;;5013479;28;20033;-73
2024/01/27 00:29:34;;;;;;;28.40;8.35;;;3.40;99.90;;;;;;5013185;28;20041;-73
2024/01/27 00:32:00;;;;;;;32.70;7.85;;;3.30;99.90;;;;;;5013277;28;20030;-72
2024/01/27 00:34:25;;;;;;;29.33;7.45;;;3.30;99.90;;;;;;5014690;28;20072;-72
2024/01/27 00:36:51;;;;;;;30.52;8.70;;;3.20;99.90;;;;;;5017294;28;20113;-73
2024/01/27 00:39:18;;;;;;;37.90;8.07;;;3.20;99.90;;;;;;5017592;28;20471;-72
2024/01/27 00:41:43;;;;;;;29.85;7.93;;;3.30;99.90;;;;;;5017403;28;20033;-73
2024/01/27 00:44:09;;;;;;;30.55;7.20;;;3.40;99.90;;;;;;5016923;28;20412;-72
2024/01/27 00:46:37;;;;;;;27.73;8.35;;;3.30;99.90;;;;;;5017228;28;20430;-72
2024/01/27 00:49:02;;;;;;;27.23;7.60;;;3.30;99.90;;;;;;5017106;28;20026;-73
2024/01/27 00:51:28;;;;;;;32.67;9.70;;;3.30;99.90;;;;;;5017125;28;20025;-72
2024/01/27 00:53:53;;;;;;;32.40;8.18;;;3.30;99.90;;;;;;5017492;28;20427;-72
2024/01/27 00:56:19;;;;;;;32.00;7.68;;;3.20;99.90;;;;;;5017216;28;20022;-72
2024/01/27 00:58:44;;;;;;;41.65;8.85;;;3.20;99.90;;;;;;5017086;28;20033;-72
2024/01/27 01:01:10;;;;;;;47.35;8.52;;;3.20;99.90;;;;;;5016968;28;20030;-72
2024/01/27 01:03:36;;;;;;;37.97;8.65;;;3.30;99.90;;;;;;5016807;28;20026;-72
2024/01/27 01:06:01;;;;;;;28.05;8.50;;;3.30;99.90;;;;;;5016902;28;20104;-72
2024/01/27 01:08:27;;;;;;;34.95;8.43;;;3.20;99.90;;;;;;5016799;28;20438;-72
2024/01/27 01:10:52;;;;;;;35.90;9.57;;;3.20;99.90;;;;;;5016631;28;20034;-72
2024/01/27 01:13:18;;;;;;;41.20;9.05;;;3.20;99.90;;;;;;5016908;28;20058;-72
2024/01/27 01:15:44;;;;;;;30.65;7.75;;;3.20;99.90;;;;;;5016696;28;20392;-72
2024/01/27 01:18:09;;;;;;;38.85;9.50;;;3.10;99.90;;;;;;5016209;28;20507;-73
2024/01/27 01:20:35;;;;;;;30.38;8.93;;;3.10;99.90;;;;;;5016457;28;20068;-73
2024/01/27 01:23:01;;;;;;;32.13;9.13;;;3.10;99.90;;;;;;5016426;28;20530;-72
2024/01/27 01:25:26;;;;;;;28.55;8.82;;;3.00;99.90;;;;;;5031569;28;20123;-73
2024/01/27 01:27:52;;;;;;;30.63;8.80;;;3.00;99.90;;;;;;5016470;28;20042;-72
2024/01/27 01:30:17;;;;;;;40.50;9.25;;;3.00;99.90;;;;;;5016233;28;20479;-73
2024/01/27 01:32:43;;;;;;;34.85;8.80;;;2.90;99.90;;;;;;5015831;28;20495;-72
2024/01/27 01:35:10;;;;;;;37.50;9.77;;;2.90;99.90;;;;;;5015845;28;20439;-73
2024/01/27 01:37:35;;;;;;;34.30;9.88;;;2.90;99.90;;;;;;5016185;28;20030;-72
2024/01/27 01:40:02;;;;;;;32.25;8.77;;;3.10;99.90;;;;;;5016174;28;20080;-72
2024/01/27 01:42:29;;;;;;;29.83;8.27;;;2.90;99.90;;;;;;5015649;28;20065;-73
2024/01/27 01:44:55;;;;;;;29.05;8.40;;;2.90;99.90;;;;;;5015469;28;20050;-73
2024/01/27 01:47:22;;;;;;;29.88;9.02;;;2.80;99.90;;;;;;5015127;28;20044;-72
2024/01/27 01:49:48;;;;;;;34.10;9.75;;;2.70;99.90;;;;;;5015731;28;20026;-72
2024/01/27 01:52:19;;;;;;;37.92;9.20;;;2.80;99.90;;;;;;5015774;28;20022;-72
2024/01/27 01:54:48;;;;;;;28.98;8.68;;;2.80;99.90;;;;;;5015875;28;20032;-73
2024/01/27 01:57:13;;;;;;;33.22;8.63;;;2.80;99.90;;;;;;5015861;28;20116;-72
2024/01/27 01:59:40;;;;;;;26.35;8.55;;;2.80;99.90;;;;;;5015697;28;20061;-72
2024/01/27 02:02:06;;;;;;;36.00;9.38;;;2.70;99.90;;;;;;5015700;28;20112;-73
2024/01/27 02:04:47;;;;;;;31.40;8.52;;;2.70;99.90;;;;;;5015658;28;20068;-72
2024/01/27 02:07:13;;;;;;;37.85;8.85;;;2.70;99.90;;;;;;5015597;28;20052;-72
2024/01/27 02:09:38;;;;;;;28.30;9.13;;;2.70;99.90;;;;;;5015323;28;20030;-73
2024/01/27 02:12:04;;;;;;;35.22;9.70;;;2.70;99.90;;;;;;5015568;28;20495;-72
2024/01/27 02:14:30;;;;;;;29.48;8.98;;;2.80;99.90;;;;;;5015514;28;20049;-73
2024/01/27 02:16:56;;;;;;;34.85;10.43;;;2.90;99.90;;;;;;5015362;28;20471;-73
2024/01/27 02:19:22;;;;;;;28.50;9.65;;;2.80;99.90;;;;;;5015508;28;20030;-72
2024/01/27 02:21:47;;;;;;;39.25;10.93;;;2.80;99.90;;;;;;5014905;28;20026;-72
2024/01/27 02:24:13;;;;;;;32.50;9.40;;;2.70;99.90;;;;;;5014975;28;20069;-72
2024/01/27 02:26:38;;;;;;;40.42;10.38;;;2.60;99.90;;;;;;5014469;28;20036;-72
2024/01/27 02:29:04;;;;;;;34.15;10.38;;;2.50;99.90;;;;;;5014885;28;20030;-72
2024/01/27 02:31:29;;;;;;;32.80;9.93;;;2.40;99.90;;;;;;5014518;28;20026;-71
2024/01/27 02:33:55;;;;;;;34.42;9.52;;;2.40;99.90;;;;;;5014971;28;20038;-72
2024/01/27 02:36:20;;;;;;;35.55;10.40;;;2.50;99.90;;;;;;5015204;28;20026;-71
2024/01/27 02:38:46;;;;;;;37.97;9.88;;;2.40;99.90;;;;;;5014377;28;20038;-71
2024/01/27 02:41:12;;;;;;;32.45;10.10;;;2.40;99.90;;;;;;5014830;28;20034;-71
2024/01/27 02:43:37;;;;;;;28.33;9.75;;;2.30;99.90;;;;;;5014217;28;20522;-71
2024/01/27 02:46:09;;;;;;;39.88;10.55;;;2.20;99.90;;;;;;5014738;28;20073;-71
2024/01/27 02:48:34;;;;;;;35.08;10.65;;;2.20;99.90;;;;;;5014533;28;20036;-71
2024/01/27 02:51:02;;;;;;;29.98;10.25;;;2.10;99.90;;;;;;5014302;28;20018;-71
2024/01/27 02:53:28;;;;;;;32.15;10.27;;;2.10;99.90;;;;;;5014562;28;20480;-70
2024/01/27 02:55:54;;;;;;;36.40;9.88;;;2.00;99.90;;;;;;5014460;28;20168;-70
2024/01/27 02:58:19;;;;;;;37.72;10.57;;;1.90;99.90;;;;;;5014406;28;20148;-70
2024/01/27 03:00:45;;;;;;;30.65;9.07;;;1.80;99.90;;;;;;5014510;28;20116;-70
2024/01/27 03:03:10;;;;;;;37.05;10.07;;;1.80;99.90;;;;;;5014466;28;20026;-70
2024/01/27 03:05:36;;;;;;;29.77;9.70;;;1.80;99.90;;;;;;5013997;28;20026;-70
2024/01/27 03:08:01;;;;;;;41.33;11.23;;;1.80;99.90;;;;;;5014318;28;20391;-70
2024/01/27 03:10:27;;;;;;;33.85;10.73;;;1.90;99.90;;;;;;5014012;28;20029;-71
2024/01/27 03:12:52;;;;;;;32.70;10.55;;;2.10;99.90;;;;;;5014342;28;20037;-71
2024/01/27 03:15:18;;;;;;;38.22;11.52;;;2.00;99.90;;;;;;5014198;28;20018;-70
2024/01/27 03:17:44;;;;;;;28.23;11.27;;;2.20;99.90;;;;;;5014364;28;20121;-70
2024/01/27 03:20:09;;;;;;;38.78;12.88;;;2.20;99.90;;;;;;5014123;28;20030;-70
2024/01/27 03:22:35;;;;;;;39.67;11.57;;;2.20;99.90;;;;;;5014150;28;20037;-71
2024/01/27 03:25:01;;;;;;;32.80;11.20;;;2.20;99.90;;;;;;5013951;28;20036;-71
2024/01/27 03:27:26;;;;;;;33.92;11.55;;;2.10;99.90;;;;;;5014039;28;20479;-70
2024/01/27 03:29:52;;;;;;;33.78;12.07;;;2.10;99.90;;;;;;5013878;28;20034;-71
2024/01/27 03:32:17;;;;;;;35.50;10.95;;;2.10;99.90;;;;;;5013885;28;20022;-71
2024/01/27 03:34:45;;;;;;;46.92;13.40;;;2.00;99.90;;;;;;5013870;28;20028;-71
2024/01/27 03:37:12;;;;;;;44.70;11.75;;;2.00;99.90;;;;;;5013838;28;20030;-70
2024/01/27 03:39:37;;;;;;;30.90;11.73;;;2.00;99.90;;;;;;5013842;28;20053;-71
2024/01/27 03:42:03;;;;;;;33.30;11.82;;;2.00;99.90;;;;;;5013483;28;20030;-71
2024/01/27 03:44:28;;;;;;;37.10;11.98;;;2.00;99.90;;;;;;5013360;28;20057;-71
2024/01/27 03:46:54;;;;;;;39.47;13.82;;;2.00;99.90;;;;;;5013882;28;20113;-71
2024/01/27 03:49:19;;;;;;;41.35;12.18;;;2.00;99.90;;;;;;5013473;28;20033;-71
2024/01/27 03:51:45;;;;;;;36.55;12.50;;;2.00;99.90;;;;;;5013237;28;20026;-71
2024/01/27 03:54:10;;;;;;;41.63;12.05;;;1.90;99.90;;;;;;5013649;28;20033;-71
2024/01/27 03:56:36;;;;;;;48.05;12.93;;;1.90;99.90;;;;;;5013140;28;20124;-71
2024/01/27 03:59:03;;;;;;;37.22;11.70;;;1.80;99.90;;;;;;5013580;28;20042;-70
2024/01/27 04:01:29;;;;;;;35.92;11.85;;;1.80;99.90;;;;;;5013552;28;20022;-71
2024/01/27 04:03:54;;;;;;;32.38;11.30;;;1.80;99.90;;;;;;5013205;28;20591;-70
2024/01/27 04:06:20;;;;;;;30.05;11.10;;;1.60;99.90;;;;;;5013749;28;20555;-71
2024/01/27 04:08:45;;;;;;;38.60;11.80;;;1.50;99.90;;;;;;5012407;28;20025;-70
2024/01/27 04:11:20;;;;;;;34.75;12.13;;;1.40;99.90;;;;;;5013067;28;20057;-70
2024/01/27 04:13:45;;;;;;;36.95;12.57;;;1.50;99.90;;;;;;5013427;28;20113;-70
2024/01/27 04:16:11;;;;;;;47.80;12.45;;;1.40;99.90;;;;;;5013384;28;20053;-70
2024/01/27 04:18:39;;;;;;;33.22;12.25;;;1.40;99.90;;;;;;5013471;28;20030;-71
2024/01/27 04:21:04;;;;;;;29.48;11.57;;;1.30;99.90;;;;;;5013394;28;20032;-71
2024/01/27 04:23:30;;;;;;;33.40;11.52;;;1.30;99.90;;;;;;5013318;28;20543;-70
2024/01/27 04:25:55;;;;;;;27.30;10.68;;;1.30;99.90;;;;;;5013309;28;20042;-69
2024/01/27 04:28:21;;;;;;;31.20;11.95;;;1.30;99.90;;;;;;5013421;28;20026;-70
2024/01/27 04:30:46;;;;;;;27.10;11.55;;;1.10;99.90;;;;;;5012853;28;20100;-70
2024/01/27 04:33:12;;;;;;;40.08;12.25;;;1.10;99.90;;;;;;5012819;28;20506;-70
2024/01/27 04:35:38;;;;;;;30.45;10.57;;;1.00;99.90;;;;;;5013285;28;20030;-71
2024/01/27 04:38:03;;;;;;;30.65;11.05;;;0.90;99.90;;;;;;5013240;28;20034;-71
2024/01/27 04:40:29;;;;;;;29.83;12.73;;;1.00;99.90;;;;;;5012943;28;20057;-70
2024/01/27 04:42:55;;;;;;;34.17;11.73;;;0.90;99.90;;;;;;5012674;28;20030;-71
2024/01/27 04:45:20;;;;;;;34.38;12.98;;;0.20;99.90;;;;;;5012573;28;20369;-70
2024/01/27 04:47:46;;;;;;;25.98;11.70;;;1.00;99.90;;;;;;5013069;28;20117;-70
2024/01/27 04:50:12;;;;;;;49.65;14.00;;;1.00;99.90;;;;;;5012881;28;20399;-71
2024/01/27 04:52:37;;;;;;;33.63;13.05;;;0.90;99.90;;;;;;5013065;28;20022;-71
2024/01/27 04:55:03;;;;;;;35.75;12.98;;;0.90;99.90;;;;;;5013103;28;20022;-71
2024/01/27 04:57:29;;;;;;;31.45;12.65;;;0.80;99.90;;;;;;5013082;28;20396;-70
2024/01/27 04:59:54;;;;;;;37.70;13.52;;;0.90;99.90;;;;;;5012626;28;20023;-71
2024/01/27 05:02:20;;;;;;;38.70;13.52;;;1.00;99.90;;;;;;5012819;28;20091;-70
2024/01/27 05:04:45;;;;;;;34.08;13.38;;;0.90;99.90;;;;;;5012860;28;20048;-70
2024/01/27 05:07:11;;;;;;;60.00;15.63;;;1.00;99.90;;;;;;5012860;28;20034;-70
2024/01/27 05:09:37;;;;;;;46.67;14.75;;;1.10;99.90;;;;;;5012727;28;20060;-70
2024/01/27 05:12:03;;;;;;;45.22;15.43;;;1.10;99.90;;;;;;5012836;28;20048;-70
2024/01/27 05:14:28;;;;;;;37.25;14.25;;;1.00;99.90;;;;;;5012945;28;20072;-70
2024/01/27 05:16:54;;;;;;;42.25;14.23;;;0.90;99.90;;;;;;5012469;28;20026;-70
2024/01/27 05:19:19;;;;;;;40.42;14.73;;;0.90;99.90;;;;;;5012721;28;20034;-70
2024/01/27 05:21:45;;;;;;;34.17;13.75;;;0.80;99.90;;;;;;5014506;28;20045;-70
2024/01/27 05:24:10;;;;;;;33.47;12.77;;;0.80;99.90;;;;;;5015875;28;20032;-70
2024/01/27 05:26:36;;;;;;;36.70;13.55;;;0.70;99.90;;;;;;5016151;28;20034;-71
2024/01/27 05:29:01;;;;;;;37.50;13.50;;;0.70;99.90;;;;;;5015832;28;20128;-70
2024/01/27 05:31:27;;;;;;;31.95;12.63;;;0.70;99.90;;;;;;5016393;28;20064;-70
2024/01/27 05:33:52;;;;;;;46.03;13.63;;;0.60;99.90;;;;;;5016422;28;20643;-70
2024/01/27 05:36:18;;;;;;;35.22;14.73;;;0.70;99.90;;;;;;5016234;28;20061;-71
2024/01/27 05:38:43;;;;;;;47.47;14.90;;;0.80;99.90;;;;;;5015739;28;20030;-70
2024/01/27 05:41:09;;;;;;;49.97;14.68;;;0.80;99.90;;;;;;5016166;28;20029;-70
2024/01/27 05:43:34;;;;;;;44.50;15.15;;;0.80;99.90;;;;;;5015831;28;20050;-70
2024/01/27 05:46:00;;;;;;;44.47;14.77;;;0.80;99.90;;;;;;5016119;28;20028;-71
2024/01/27 05:48:25;;;;;;;47.65;15.70;;;0.80;99.90;;;;;;5016020;28;20064;-71
2024/01/27 05:50:59;;;;;;;32.42;14.13;;;0.80;99.90;;;;;;5015487;28;20034;-70
2024/01/27 05:53:26;;;;;;;45.85;15.98;;;0.90;99.90;;;;;;5016099;28;20038;-70
2024/01/27 05:55:52;;;;;;;36.10;15.07;;;0.90;99.90;;;;;;5015608;28;20025;-70
2024/01/27 05:58:21;;;;;;;38.17;15.30;;;0.90;99.90;;;;;;5015825;28;20026;-70
2024/01/27 06:00:47;;;;;;;36.03;14.40;;;0.80;99.90;;;;;;5015536;28;20076;-70
2024/01/27 06:03:12;;;;;;;30.80;14.25;;;0.70;99.90;;;;;;5015717;28;20365;-71
2024/01/27 06:05:38;;;;;;;37.40;15.02;;;0.70;99.90;;;;;;5015621;28;20121;-71
2024/01/27 06:08:05;;;;;;;40.92;16.25;;;0.70;99.90;;;;;;5015650;28;20045;-70
2024/01/27 06:10:31;;;;;;;48.30;16.55;;;0.70;99.90;;;;;;5015259;28;20025;-70
2024/01/27 06:12:57;;;;;;;55.05;16.17;;;0.80;99.90;;;;;;5015600;28;20373;-70
2024/01/27 06:15:23;;;;;;;41.15;16.25;;;0.80;99.90;;;;;;5015514;28;20033;-70
2024/01/27 06:17:48;;;;;;;42.05;15.57;;;0.80;99.90;;;;;;5015374;28;20022;-70
2024/01/27 06:20:16;;;;;;;44.47;17.33;;;0.80;99.90;;;;;;5015469;28;20113;-70
2024/01/27 06:22:41;;;;;;;49.17;17.38;;;0.80;99.90;;;;;;5015318;28;20037;-70
2024/01/27 06:25:08;;;;;;;51.55;17.75;;;1.00;99.90;;;;;;5015233;28;20034;-70
2024/01/27 06:27:34;;;;;;;57.50;18.98;;;1.00;99.90;;;;;;5015281;28;20025;-70
2024/01/27 06:29:59;;;;;;;47.88;18.35;;;1.00;99.90;;;;;;5015038;28;20500;-70
2024/01/27 06:32:25;;;;;;;51.00;18.00;;;1.00;99.90;;;;;;5014834;28;20113;-70
2024/01/27 06:34:50;;;;;;;63.97;22.08;;;1.20;99.90;;;;;;5014716;28;20022;-70
2024/01/27 06:37:16;;;;;;;59.78;24.67;;;1.40;99.90;;;;;;5015077;28;20029;-71
2024/01/27 06:39:41;;;;;;;65.93;20.88;;;1.50;99.90;;;;;;5014634;28;20018;-70
2024/01/27 06:42:07;;;;;;;60.13;22.65;;;1.60;99.90;;;;;;5014910;28;20030;-70
2024/01/27 06:44:32;;;;;;;74.03;29.30;;;1.70;99.90;;;;;;5014703;28;20145;-70
2024/01/27 06:46:58;;;;;;;65.07;22.15;;;1.70;99.90;;;;;;5014591;28;20030;-70
2024/01/27 06:49:23;;;;;;;53.53;20.75;;;1.70;99.90;;;;;;5014774;28;20022;-70
2024/01/27 06:51:49;;;;;;;75.65;19.70;;;1.60;99.90;;;;;;5014773;28;20029;-70
2024/01/27 06:54:14;;;;;;;66.65;22.38;;;1.80;99.90;;;;;;5014721;28;20038;-70
2024/01/27 06:56:40;;;;;;;50.63;20.33;;;1.80;99.90;;;;;;5014342;28;20361;-70
2024/01/27 06:59:06;;;;;;;47.75;19.83;;;1.80;99.90;;;;;;5014225;28;20022;-70
2024/01/27 07:01:31;;;;;;;53.92;20.63;;;1.80;99.90;;;;;;5014637;28;20033;-70
2024/01/27 07:03:57;;;;;;;53.90;19.38;;;1.80;99.90;;;;;;5014625;28;20548;-70
2024/01/27 07:06:22;;;;;;;51.83;21.10;;;1.70;99.90;;;;;;5014453;28;20361;-70
2024/01/27 07:08:48;;;;;;;64.70;21.27;;;1.60;99.90;;;;;;5014068;28;20029;-70
2024/01/27 07:11:13;;;;;;;64.50;20.80;;;1.60;99.90;;;;;;5014315;28;20026;-70
2024/01/27 07:13:40;;;;;;;48.85;18.95;;;1.60;99.90;;;;;;5014422;28;20033;-71
2024/01/27 07:16:06;;;;;;;60.58;20.65;;;1.70;99.90;;;;;;5014252;28;20482;-70
2024/01/27 07:18:32;;;;;;;67.65;19.33;;;1.70;99.90;;;;;;5013938;28;20033;-70
2024/01/27 07:20:59;;;;;;;49.20;19.05;;;1.70;99.90;;;;;;5014346;28;20443;-70
2024/01/27 07:23:25;;;;;;;51.63;19.80;;;1.70;99.90;;;;;;5014011;28;20033;-71
2024/01/27 07:25:50;;;;;;;59.42;21.10;;;1.70;99.90;;;;;;5013929;28;20029;-70
2024/01/27 07:28:18;;;;;;;53.83;19.23;;;1.70;99.90;;;;;;5013983;28;20034;-71
2024/01/27 07:30:44;;;;;;;59.72;18.67;;;1.70;99.90;;;;;;5013671;28;20018;-71
2024/01/27 07:33:10;;;;;;;51.05;18.77;;;1.70;99.90;;;;;;5014183;28;20021;-71
2024/01/27 07:35:35;;;;;;;46.70;18.33;;;1.80;99.90;;;;;;5014084;28;20475;-71
2024/01/27 07:38:01;;;;;;;56.58;17.27;;;1.70;99.90;;;;;;5014028;28;20064;-71
2024/01/27 07:40:26;;;;;;;50.20;18.15;;;1.80;99.90;;;;;;5014106;28;20065;-71
2024/01/27 07:42:52;;;;;;;49.80;16.48;;;1.90;99.90;;;;;;5013604;28;20388;-72
2024/01/27 07:45:17;;;;;;;41.58;16.80;;;2.00;99.90;;;;;;5013221;28;20034;-71
2024/01/27 07:47:43;;;;;;;43.90;16.27;;;2.00;99.90;;;;;;5013909;28;20096;-72
2024/01/27 07:50:09;;;;;;;45.75;16.98;;;2.00;99.90;;;;;;5013638;28;20056;-72
2024/01/27 07:52:35;;;;;;;48.17;17.00;;;2.10;99.90;;;;;;5013806;28;20037;-72
2024/01/27 07:55:01;;;;;;;47.58;16.13;;;2.20;99.90;;;;;;5013420;28;20026;-72
2024/01/27 07:57:27;;;;;;;49.42;17.38;;;2.30;99.90;;;;;;5013855;28;20028;-71
2024/01/27 07:59:52;;;;;;;39.42;16.02;;;2.70;99.90;;;;;;5013682;28;20030;-72
2024/01/27 08:02:18;;;;;;;43.13;15.23;;;3.20;99.90;;;;;;5013694;28;20062;-71
2024/01/27 08:04:43;;;;;;;35.72;13.63;;;3.60;99.90;;;;;;5013734;28;20511;-72
2024/01/27 08:07:09;;;;;;;44.83;13.20;;;3.70;99.90;;;;;;5013685;28;20057;-71
2024/01/27 08:09:35;;;;;;;31.70;12.18;;;3.90;99.90;;;;;;5013445;28;20104;-72
2024/01/27 08:12:01;;;;;;;21.92;9.88;;;4.20;99.90;;;;;;5013584;28;20036;-72
2024/01/27 08:14:29;;;;;;;34.60;11.48;;;4.30;99.90;;;;;;5013677;28;20454;-71
2024/01/27 08:16:56;;;;;;;34.88;11.85;;;4.50;99.90;;;;;;5013672;28;20050;-72
2024/01/27 08:19:21;;;;;;;25.23;11.05;;;4.70;99.90;;;;;;5013076;28;20077;-72
2024/01/27 08:21:47;;;;;;;31.45;11.68;;;5.20;99.90;;;;;;5013487;28;20033;-72
2024/01/27 08:24:13;;;;;;;29.50;11.30;;;5.80;99.90;;;;;;5013389;28;20038;-72
2024/01/27 08:26:39;;;;;;;34.22;11.90;;;6.20;45.70;;;;;;5013411;28;20044;-72
2024/01/27 08:29:05;;;;;;;24.52;10.07;;;6.80;1.00;;;;;;5013353;28;20396;-72
2024/01/27 08:31:30;;;;;;;24.90;10.25;;;7.10;1.00;;;;;;5013406;28;20029;-72
2024/01/27 08:33:57;;;;;;;26.20;9.27;;;7.30;1.00;;;;;;5013447;28;20450;-70
2024/01/27 08:36:22;;;;;;;25.48;9.77;;;7.30;99.90;;;;;;5012825;28;20104;-72
2024/01/27 08:38:48;;;;;;;35.80;9.90;;;7.00;1.00;;;;;;5013322;28;20120;-72
2024/01/27 08:41:13;;;;;;;29.75;10.10;;;6.80;99.90;;;;;;5012851;28;20105;-72
2024/01/27 08:43:39;;;;;;;29.33;9.90;;;7.00;99.90;;;;;;5012878;28;20053;-72
2024/01/27 08:46:04;;;;;;;29.38;10.30;;;7.10;1.00;;;;;;5012963;28;20022;-72
2024/01/27 08:48:30;;;;;;;22.35;8.52;;;6.90;99.90;;;;;;5013352;28;20026;-72
2024/01/27 08:50:55;;;;;;;26.75;8.65;;;7.00;99.90;;;;;;5012938;28;20385;-72
2024/01/27 08:53:21;;;;;;;23.73;9.30;;;7.20;99.90;;;;;;5013112;28;20022;-72
2024/01/27 08:55:46;;;;;;;29.02;9.15;;;7.80;35.00;;;;;;5015099;28;20085;-72
2024/01/27 08:58:12;;;;;;;24.23;8.25;;;7.90;99.90;;;;;;5016603;28;20064;-70
2024/01/27 09:00:37;;;;;;;23.27;8.82;;;8.10;99.90;;;;;;5016969;28;20034;-72
2024/01/27 09:03:03;;;;;;;22.63;8.20;;;8.00;1.00;;;;;;5016960;28;20041;-72
2024/01/27 09:05:29;;;;;;;23.10;7.00;;;7.80;99.90;;;;;;5016831;28;20460;-72
2024/01/27 09:07:54;;;;;;;24.00;7.80;;;8.10;1.00;;;;;;5016491;28;20113;-72
2024/01/27 09:10:20;;;;;;;25.52;7.93;;;8.60;99.90;;;;;;5016457;28;20030;-72
2024/01/27 09:12:46;;;;;;;16.77;7.13;;;8.10;99.90;;;;;;5016266;28;20028;-72
2024/01/27 09:15:11;;;;;;;26.88;7.35;;;8.30;1.00;;;;;;5016652;28;20029;-71
2024/01/27 09:17:37;;;;;;;22.58;7.95;;;8.10;1.00;;;;;;5016682;28;20147;-72
2024/01/27 09:20:03;;;;;;;21.20;7.50;;;8.80;1.00;;;;;;5016612;28;20037;-72
2024/01/27 09:22:28;;;;;;;25.67;7.35;;;8.90;1.00;;;;;;5016538;28;20221;-72
2024/01/27 09:24:55;;;;;;;20.48;7.18;;;9.00;99.90;;;;;;5016388;28;20026;-72
2024/01/27 09:27:20;;;;;;;24.58;8.57;;;9.40;99.90;;;;;;5016343;28;20124;-70
2024/01/27 09:29:46;;;;;;;21.83;7.47;;;9.30;1.00;;;;;;5016101;28;20124;-70
2024/01/27 09:32:12;;;;;;;23.50;7.43;;;9.20;1.00;;;;;;5016304;28;20060;-72
2024/01/27 09:34:37;;;;;;;25.30;7.55;;;9.10;99.90;;;;;;5015928;28;20076;-71
2024/01/27 09:37:03;;;;;;;24.70;7.50;;;9.30;1.00;;;;;;5016007;28;20120;-72
2024/01/27 09:39:28;;;;;;;24.02;7.28;;;9.60;99.90;;;;;;5016351;28;20112;-72
2024/01/27 09:41:55;;;;;;;24.02;7.03;;;10.10;99.90;;;;;;5015688;28;20029;-72
2024/01/27 09:44:21;;;;;;;21.20;6.95;;;10.40;99.90;;;;;;5015733;28;20045;-72
2024/01/27 09:46:48;;;;;;;20.13;7.40;;;9.80;1.00;;;;;;5016125;28;20472;-71
2024/01/27 09:49:14;;;;;;;24.58;7.38;;;10.40;1.00;;;;;;5016000;28;20474;-72
2024/01/27 09:51:41;;;;;;;20.63;6.82;;;10.40;50.30;;;;;;5015935;28;20112;-72
2024/01/27 09:54:07;;;;;;;18.70;6.50;;;10.10;99.90;;;;;;5015671;28;20018;-73
2024/01/27 09:56:34;;;;;;;24.15;6.88;;;10.10;99.90;;;;;;5015895;28;20121;-73
2024/01/27 09:59:01;;;;;;;18.60;7.22;;;10.20;99.90;;;;;;5015523;28;20399;-73
2024/01/27 10:01:28;;;;;;;19.67;7.28;;;9.80;99.90;;;;;;5015589;28;20026;-72
2024/01/27 10:03:54;;;;;;;20.25;7.78;;;9.90;1.00;;;;;;5015876;28;20369;-72
2024/01/27 10:06:21;;;;;;;19.08;7.05;;;9.80;99.90;;;;;;5015143;28;20108;-72
2024/01/27 10:08:54;;;;;;;22.33;7.22;;;10.20;99.90;;;;;;5015219;28;20017;-73
2024/01/27 10:11:21;;;;;;;22.55;7.13;;;10.20;1.00;;;;;;5015687;28;20022;-73
2024/01/27 10:13:54;;;;;;;19.50;6.53;;;10.20;99.90;;;;;;5015454;28;20032;-72
2024/01/27 10:16:20;;;;;;;;;;;10.30;99.90;;;;;;5015813;28;20018;-72
2024/01/27 10:18:45;;;;;;;21.35;5.82;;;10.60;99.90;;;;;;5015331;28;19916;-73
2024/01/27 10:21:13;;;;;;;24.35;7.32;;;10.40;1.00;;;;;;5015357;28;20053;-73
2024/01/27 10:23:39;;;;;;;22.10;6.85;;;10.70;99.90;;;;;;5015312;28;20030;-73
2024/01/27 10:26:05;;;;;;;23.30;6.85;;;10.60;99.90;;;;;;5015345;28;20369;-73
2024/01/27 10:28:31;;;;;;;19.77;7.05;;;11.10;99.90;;;;;;5015372;28;20033;-72
2024/01/27 10:31:09;;;;;;;20.88;7.13;;;10.60;1.00;;;;;;5014985;28;20034;-72
2024/01/27 10:33:35;;;;;;;21.00;6.53;;;10.30;1.00;;;;;;5015218;28;20030;-72
2024/01/27 10:36:00;;;;;;;21.48;6.53;;;10.40;1.00;;;;;;5015178;28;20476;-72
2024/01/27 10:38:34;;;;;;;22.23;6.20;;;10.70;1.00;;;;;;5015100;28;20033;-72
2024/01/27 10:41:01;;;;;;;24.50;6.82;;;10.40;1.00;;;;;;5014233;28;20026;-72
2024/01/27 10:43:27;;;;;;;20.42;6.28;;;10.90;1.00;;;;;;5014822;28;20089;-72
2024/01/27 10:45:54;;;;;;;22.33;5.53;;;;;;;;;;5014780;28;20026;-73
2024/01/27 10:48:20;;;;;;;21.70;6.10;;;11.50;99.90;;;;;;5014424;28;20072;-73
2024/01/27 10:50:47;;;;;;;17.95;5.20;;;10.80;99.90;;;;;;5014691;28;20456;-73
2024/01/27 10:53:27;;;;;;;21.50;6.43;;;11.00;99.90;;;;;;5014801;28;20072;-73
2024/01/27 10:55:55;;;;;;;23.00;6.85;;;11.10;99.90;;;;;;5014822;28;20030;-73
2024/01/27 10:58:25;;;;;;;18.45;5.20;;;10.80;99.90;;;;;;5014221;28;20079;-73
2024/01/27 11:00:53;;;;;;;15.75;5.90;;;10.80;99.90;;;;;;5014240;28;20037;-73
2024/01/27 11:03:19;;;;;;;18.45;5.57;;;10.80;99.90;;;;;;5014591;28;20030;-72
2024/01/27 11:05:47;;;;;;;24.77;5.13;;;10.50;99.90;;;;;;5014535;28;20542;-73
2024/01/27 11:08:14;;;;;;;17.83;5.78;;;10.80;99.90;;;;;;5014290;28;20026;-73
2024/01/27 11:10:40;;;;;;;19.90;6.35;;;11.30;99.90;;;;;;5014041;28;20026;-73
2024/01/27 11:13:07;;;;;;;23.75;6.32;;;11.20;99.90;;;;;;5014411;28;20061;-73
2024/01/27 11:15:33;;;;;;;17.75;5.55;;;10.70;99.90;;;;;;5014261;28;20468;-73
2024/01/27 11:18:02;;;;;;;20.98;5.80;;;11.10;99.90;;;;;;5014494;28;20037;-74
2024/01/27 11:20:30;;;;;;;20.33;5.80;;;11.20;99.90;;;;;;5014411;28;20064;-73
2024/01/27 11:22:57;;;;;;;19.15;5.57;;;11.10;99.90;;;;;;5014235;28;20511;-73
2024/01/27 11:25:23;;;;;;;22.23;5.75;;;11.70;99.90;;;;;;5013824;28;20029;-73
2024/01/27 11:27:49;;;;;;;17.33;5.40;;;11.50;99.90;;;;;;5014131;28;20384;-73
2024/01/27 11:30:33;;;;;;;13.82;4.93;;;11.50;99.90;;;;;;5013818;28;20021;-73
2024/01/27 11:33:02;;;;;;;21.83;5.43;;;11.10;99.90;;;;;;5013929;28;20026;-74
2024/01/27 11:35:27;;;;;;;21.98;4.90;;;11.40;99.90;;;;;;5014041;28;20038;-73
2024/01/27 11:37:55;;;;;;;16.00;5.07;;;;;;;;;;5013950;28;20029;-73
2024/01/27 11:40:21;;;;;;;22.42;5.50;;;10.50;99.90;;;;;;5013961;28;20073;-73
2024/01/27 11:42:56;;;;;;;22.40;5.13;;;10.80;99.90;;;;;;5013896;28;20037;-73
2024/01/27 11:45:22;;;;;;;18.38;4.85;;;10.50;99.90;;;;;;5014004;28;20048;-73
2024/01/27 11:47:48;;;;;;;20.98;5.50;;;10.10;99.90;;;;;;5013795;28;20030;-72
2024/01/27 11:50:18;;;;;;;16.20;4.55;;;9.80;99.90;;;;;;5013787;28;20046;-72
2024/01/27 11:52:44;;;;;;;22.45;4.10;;;9.80;99.90;;;;;;5013759;28;20046;-72
2024/01/27 11:55:09;;;;;;;14.57;5.22;;;9.90;99.90;;;;;;5013746;28;20088;-72
2024/01/27 11:57:35;;;;;;;17.70;4.55;;;9.80;99.90;;;;;;5013702;28;20034;-72
2024/01/27 12:00:00;;;;;;;21.58;5.07;;;9.90;99.90;;;;;;5013764;28;20038;-73
2024/01/27 12:02:26;;;;;;;16.25;3.88;;;10.10;99.90;;;;;;5013715;28;20053;-72
2024/01/27 12:04:52;;;;;;;21.00;4.55;;;10.20;99.90;;;;;;5013616;28;20025;-73
2024/01/27 12:07:19;;;;;;;22.23;6.28;;;10.20;99.90;;;;;;5013559;28;20044;-72
2024/01/27 12:09:45;;;;;;;16.08;4.47;;;10.10;99.90;;;;;;5013295;28;20034;-72
2024/01/27 12:12:12;;;;;;;18.52;4.60;;;9.70;99.90;;;;;;5013073;28;20029;-72
2024/01/27 12:14:48;;;;;;;12.68;3.97;;;9.60;99.90;;;;;;5013214;28;20030;-72
2024/01/27 12:17:15;;;;;;;25.35;5.65;;;9.70;99.90;;;;;;5013121;28;20025;-72
2024/01/27 12:19:47;;;;;;;17.77;4.85;;;9.60;99.90;;;;;;5013500;28;20113;-72
2024/01/27 12:22:22;;;;;;;19.70;5.00;;;9.50;99.90;;;;;;5013112;28;20034;-71
2024/01/27 12:24:48;;;;;;;18.30;5.38;;;9.30;99.90;;;;;;5013027;28;20033;-72
2024/01/27 12:27:13;;;;;;;24.05;5.05;;;9.50;99.90;;;;;;5013322;28;20034;-71
2024/01/27 12:29:41;;;;;;;22.08;5.25;;;9.50;99.90;;;;;;5013221;28;20030;-72
2024/01/27 12:32:07;;;;;;;16.00;4.40;;;9.60;99.90;;;;;;5017319;28;20037;-72
2024/01/27 12:34:33;;;;;;;24.25;4.88;;;9.60;99.90;;;;;;5017466;28;20025;-71
2024/01/27 12:36:58;;;;;;;14.80;4.50;;;9.50;99.90;;;;;;5017485;28;20030;-72